sensor_id;sensor_type;location;lat;lon;timestamp;P1;durP1;ratioP1;P2;durP2;ratioP2
2728;SDS011;1372;47.956;7.830;2024-01-27T00:01:46;13.90;;;5.50;;
2728;SDS011;1372;47.956;7.830;2024-01-27T00:04:16;18.17;;;7.40;;
2728;SDS011;1372;47.956;7.830;2024-01-27T00:06:45;24.43;;;8.00;;
2728;SDS011;1372;47.956;7.830;2024-01-27T00:09:14;18.33;;;6.30;;
2728;SDS011;1372;47.956;7.830;2024-01-27T00:11:43;8.50;;;4.03;;
2728;SDS011;1372;47.956;7.830;2024-01-27T00:14:12;6.53;;;3.37;;
2728;SDS011;1372;47.956;7.830;2024-01-27T00:16:41;14.90;;;5.47;;
2728;SDS011;1372;47.956;7.830;2024-01-27T00:19:10;5.63;;;2.90;;
2728;SDS011;1372;47.956;7.830;2024-01-27T00:21:43;5.47;;;2.40;;
2728;SDS011;1372;47.956;7.830;2024-01-27T00:24:13;3.73;;;2.40;;
2728;SDS011;1372;47.956;7.830;2024-01-27T00:26:45;4.37;;;1.90;;
2728;SDS011;1372;47.956;7.830;2024-01-27T00:29:14;2.50;;;1.97;;
2728;SDS011;1372;47.956;7.830;2024-01-27T00:31:43;4.33;;;2.60;;
2728;SDS011;1372;47.956;7.830;2024-01-27T00:34:12;5.87;;;2.13;;
2728;SDS011;1372;47.956;7.830;2024-01-27T00:36:41;2.80;;;2.30;;
2728;SDS011;1372;47.956;7.830;2024-01-27T00:39:17;5.23;;;2.50;;
2728;SDS011;1372;47.956;7.830;2024-01-27T00:41:46;7.20;;;2.43;;
2728;SDS011;1372;47.956;7.830;2024-01-27T00:44:15;7.47;;;2.13;;
2728;SDS011;1372;47.956;7.830;2024-01-27T00:46:43;3.60;;;2.20;;
2728;SDS011;1372;47.956;7.830;2024-01-27T00:49:12;2.53;;;1.93;;
2728;SDS011;1372;47.956;7.830;2024-01-27T00:51:41;3.23;;;1.80;;
2728;SDS011;1372;47.956;7.830;2024-01-27T00:54:10;4.50;;;1.73;;
2728;SDS011;1372;47.956;7.830;2024-01-27T00:56:40;2.37;;;1.70;;
2728;SDS011;1372;47.956;7.830;2024-01-27T00:59:09;3.93;;;1.93;;
2728;SDS011;1372;47.956;7.830;2024-01-27T01:01:38;3.13;;;2.50;;
2728;SDS011;1372;47.956;7.830;2024-01-27T01:04:07;1.60;;;1.40;;
2728;SDS011;1372;47.956;7.830;2024-01-27T01:06:38;2.57;;;1.73;;
2728;SDS011;1372;47.956;7.830;2024-01-27T01:09:07;2.20;;;1.50;;
2728;SDS011;1372;47.956;7.830;2024-01-27T01:11:40;6.90;;;1.60;;
2728;SDS011;1372;47.956;7.830;2024-01-27T01:14:09;2.43;;;2.03;;
2728;SDS011;1372;47.956;7.830;2024-01-27T01:16:39;4.20;;;1.50;;
2728;SDS011;1372;47.956;7.830;2024-01-27T01:19:09;3.40;;;1.83;;
2728;SDS011;1372;47.956;7.830;2024-01-27T01:21:39;4.87;;;1.63;;
2728;SDS011;1372;47.956;7.830;2024-01-27T01:24:11;1.50;;;1.40;;
2728;SDS011;1372;47.956;7.830;2024-01-27T01:26:41;2.27;;;1.50;;
2728;SDS011;1372;47.956;7.830;2024-01-27T01:29:10;3.53;;;1.60;;
2728;SDS011;1372;47.956;7.830;2024-01-27T01:31:41;1.87;;;1.47;;
2728;SDS011;1372;47.956;7.830;2024-01-27T01:34:10;1.97;;;1.50;;
2728;SDS011;1372;47.956;7.830;2024-01-27T01:36:39;3.07;;;2.23;;
2728;SDS011;1372;47.956;7.830;2024-01-27T01:39:09;3.47;;;1.57;;
2728;SDS011;1372;47.956;7.830;2024-01-27T01:41:41;3.67;;;1.80;;
2728;SDS011;1372;47.956;7.830;2024-01-27T01:44:10;2.03;;;1.67;;
2728;SDS011;1372;47.956;7.830;2024-01-27T01:46:38;5.90;;;1.17;;
2728;SDS011;1372;47.956;7.830;2024-01-27T01:49:07;5.43;;;3.00;;
2728;SDS011;1372;47.956;7.830;2024-01-27T01:51:38;10.07;;;1.57;;
2728;SDS011;1372;47.956;7.830;2024-01-27T01:54:08;2.73;;;1.63;;
2728;SDS011;1372;47.956;7.830;2024-01-27T01:56:36;2.03;;;1.70;;
2728;SDS011;1372;47.956;7.830;2024-01-27T01:59:07;7.93;;;2.97;;
2728;SDS011;1372;47.956;7.830;2024-01-27T02:01:36;2.50;;;1.10;;
2728;SDS011;1372;47.956;7.830;2024-01-27T02:04:07;1.90;;;1.77;;
2728;SDS011;1372;47.956;7.830;2024-01-27T02:06:36;3.03;;;1.57;;
2728;SDS011;1372;47.956;7.830;2024-01-27T02:09:05;2.67;;;1.00;;
2728;SDS011;1372;47.956;7.830;2024-01-27T02:11:34;3.37;;;1.10;;
2728;SDS011;1372;47.956;7.830;2024-01-27T02:14:07;4.90;;;1.40;;
2728;SDS011;1372;47.956;7.830;2024-01-27T02:16:39;4.17;;;1.50;;
2728;SDS011;1372;47.956;7.830;2024-01-27T02:19:08;2.27;;;1.30;;
2728;SDS011;1372;47.956;7.830;2024-01-27T02:21:37;4.40;;;1.47;;
2728;SDS011;1372;47.956;7.830;2024-01-27T02:24:08;6.00;;;1.80;;
2728;SDS011;1372;47.956;7.830;2024-01-27T02:26:37;2.70;;;1.27;;
2728;SDS011;1372;47.956;7.830;2024-01-27T02:29:08;2.00;;;1.50;;
2728;SDS011;1372;47.956;7.830;2024-01-27T02:31:37;3.80;;;1.23;;
2728;SDS011;1372;47.956;7.830;2024-01-27T02:34:06;3.50;;;1.67;;
2728;SDS011;1372;47.956;7.830;2024-01-27T02:36:37;1.63;;;1.30;;
2728;SDS011;1372;47.956;7.830;2024-01-27T02:39:08;4.10;;;1.80;;
2728;SDS011;1372;47.956;7.830;2024-01-27T02:41:37;1.10;;;1.07;;
2728;SDS011;1372;47.956;7.830;2024-01-27T02:44:08;2.10;;;1.43;;
2728;SDS011;1372;47.956;7.830;2024-01-27T02:46:39;7.77;;;1.80;;
2728;SDS011;1372;47.956;7.830;2024-01-27T02:49:09;2.60;;;1.20;;
2728;SDS011;1372;47.956;7.830;2024-01-27T02:51:38;2.30;;;1.43;;
2728;SDS011;1372;47.956;7.830;2024-01-27T02:54:08;4.03;;;1.37;;
2728;SDS011;1372;47.956;7.830;2024-01-27T02:56:37;2.10;;;1.30;;
2728;SDS011;1372;47.956;7.830;2024-01-27T02:59:06;2.20;;;1.33;;
2728;SDS011;1372;47.956;7.830;2024-01-27T03:01:35;1.80;;;1.20;;
2728;SDS011;1372;47.956;7.830;2024-01-27T03:04:04;1.80;;;1.10;;
2728;SDS011;1372;47.956;7.830;2024-01-27T03:06:33;3.00;;;1.10;;
2728;SDS011;1372;47.956;7.830;2024-01-27T03:09:02;3.57;;;1.30;;
2728;SDS011;1372;47.956;7.830;2024-01-27T03:11:33;1.97;;;1.07;;
2728;SDS011;1372;47.956;7.830;2024-01-27T03:14:04;6.33;;;1.17;;
2728;SDS011;1372;47.956;7.830;2024-01-27T03:16:33;1.23;;;1.13;;
2728;SDS011;1372;47.956;7.830;2024-01-27T03:19:02;2.60;;;1.80;;
2728;SDS011;1372;47.956;7.830;2024-01-27T03:21:31;1.53;;;1.10;;
2728;SDS011;1372;47.956;7.830;2024-01-27T03:24:00;1.70;;;1.17;;
2728;SDS011;1372;47.956;7.830;2024-01-27T03:26:29;1.53;;;1.20;;
2728;SDS011;1372;47.956;7.830;2024-01-27T03:29:00;1.47;;;1.27;;
2728;SDS011;1372;47.956;7.830;2024-01-27T03:31:32;1.03;;;0.90;;
2728;SDS011;1372;47.956;7.830;2024-01-27T03:34:02;3.57;;;0.90;;
2728;SDS011;1372;47.956;7.830;2024-01-27T03:36:31;3.83;;;1.13;;
2728;SDS011;1372;47.956;7.830;2024-01-27T03:39:02;2.33;;;1.20;;
2728;SDS011;1372;47.956;7.830;2024-01-27T03:41:31;3.03;;;1.03;;
2728;SDS011;1372;47.956;7.830;2024-01-27T03:44:04;3.40;;;1.47;;
2728;SDS011;1372;47.956;7.830;2024-01-27T03:46:32;2.67;;;1.10;;
2728;SDS011;1372;47.956;7.830;2024-01-27T03:49:01;2.70;;;1.17;;
2728;SDS011;1372;47.956;7.830;2024-01-27T03:51:30;4.83;;;1.13;;
2728;SDS011;1372;47.956;7.830;2024-01-27T03:53:59;3.00;;;1.00;;
2728;SDS011;1372;47.956;7.830;2024-01-27T03:56:31;1.27;;;1.00;;
2728;SDS011;1372;47.956;7.830;2024-01-27T03:59:00;5.53;;;1.50;;
2728;SDS011;1372;47.956;7.830;2024-01-27T04:01:31;1.90;;;1.00;;
2728;SDS011;1372;47.956;7.830;2024-01-27T04:04:00;3.60;;;1.40;;
2728;SDS011;1372;47.956;7.830;2024-01-27T04:06:35;2.23;;;1.30;;
2728;SDS011;1372;47.956;7.830;2024-01-27T04:09:05;1.03;;;1.03;;
2728;SDS011;1372;47.956;7.830;2024-01-27T04:11:36;2.27;;;1.27;;
2728;SDS011;1372;47.956;7.830;2024-01-27T04:14:05;3.57;;;1.43;;
2728;SDS011;1372;47.956;7.830;2024-01-27T04:16:36;2.00;;;1.20;;
2728;SDS011;1372;47.956;7.830;2024-01-27T04:19:07;1.20;;;1.07;;
2728;SDS011;1372;47.956;7.830;2024-01-27T04:21:36;2.93;;;1.20;;
2728;SDS011;1372;47.956;7.830;2024-01-27T04:24:05;2.10;;;0.87;;
2728;SDS011;1372;47.956;7.830;2024-01-27T04:26:34;3.20;;;1.30;;
2728;SDS011;1372;47.956;7.830;2024-01-27T04:29:03;1.93;;;1.40;;
2728;SDS011;1372;47.956;7.830;2024-01-27T04:31:32;4.00;;;1.27;;
2728;SDS011;1372;47.956;7.830;2024-01-27T04:34:02;3.20;;;1.37;;
2728;SDS011;1372;47.956;7.830;2024-01-27T04:36:31;4.87;;;1.50;;
2728;SDS011;1372;47.956;7.830;2024-01-27T04:39:00;1.40;;;1.20;;
2728;SDS011;1372;47.956;7.830;2024-01-27T04:41:29;3.30;;;1.03;;
2728;SDS011;1372;47.956;7.830;2024-01-27T04:44:00;1.40;;;1.10;;
2728;SDS011;1372;47.956;7.830;2024-01-27T04:46:29;2.40;;;1.50;;
2728;SDS011;1372;47.956;7.830;2024-01-27T04:48:57;3.53;;;2.30;;
2728;SDS011;1372;47.956;7.830;2024-01-27T04:51:27;1.73;;;1.23;;
2728;SDS011;1372;47.956;7.830;2024-01-27T04:53:56;1.93;;;1.40;;
2728;SDS011;1372;47.956;7.830;2024-01-27T04:56:25;1.57;;;1.10;;
2728;SDS011;1372;47.956;7.830;2024-01-27T04:58:57;1.20;;;1.20;;
2728;SDS011;1372;47.956;7.830;2024-01-27T05:01:25;2.13;;;1.33;;
2728;SDS011;1372;47.956;7.830;2024-01-27T05:03:54;7.37;;;2.90;;
2728;SDS011;1372;47.956;7.830;2024-01-27T05:06:23;2.70;;;1.03;;
2728;SDS011;1372;47.956;7.830;2024-01-27T05:08:53;3.40;;;1.60;;
2728;SDS011;1372;47.956;7.830;2024-01-27T05:11:25;1.53;;;1.20;;
2728;SDS011;1372;47.956;7.830;2024-01-27T05:13:58;2.47;;;1.70;;
2728;SDS011;1372;47.956;7.830;2024-01-27T05:16:27;1.80;;;1.47;;
2728;SDS011;1372;47.956;7.830;2024-01-27T05:18:56;3.90;;;1.40;;
2728;SDS011;1372;47.956;7.830;2024-01-27T05:21:25;4.80;;;1.17;;
2728;SDS011;1372;47.956;7.830;2024-01-27T05:23:55;3.83;;;1.70;;
2728;SDS011;1372;47.956;7.830;2024-01-27T05:26:24;2.37;;;1.40;;
2728;SDS011;1372;47.956;7.830;2024-01-27T05:28:53;1.30;;;0.90;;
2728;SDS011;1372;47.956;7.830;2024-01-27T05:31:22;3.60;;;1.27;;
2728;SDS011;1372;47.956;7.830;2024-01-27T05:33:53;1.43;;;1.33;;
2728;SDS011;1372;47.956;7.830;2024-01-27T05:36:22;3.90;;;1.43;;
2728;SDS011;1372;47.956;7.830;2024-01-27T05:38:53;2.73;;;1.80;;
2728;SDS011;1372;47.956;7.830;2024-01-27T05:41:25;1.93;;;1.10;;
2728;SDS011;1372;47.956;7.830;2024-01-27T05:43:57;1.73;;;1.63;;
2728;SDS011;1372;47.956;7.830;2024-01-27T05:46:27;2.50;;;1.20;;
2728;SDS011;1372;47.956;7.830;2024-01-27T05:48:56;4.47;;;1.67;;
2728;SDS011;1372;47.956;7.830;2024-01-27T05:51:29;3.90;;;1.43;;
2728;SDS011;1372;47.956;7.830;2024-01-27T05:54:00;5.73;;;1.43;;
2728;SDS011;1372;47.956;7.830;2024-01-27T05:56:29;1.97;;;1.40;;
2728;SDS011;1372;47.956;7.830;2024-01-27T05:58:58;5.10;;;1.67;;
2728;SDS011;1372;47.956;7.830;2024-01-27T06:01:26;1.80;;;1.33;;
2728;SDS011;1372;47.956;7.830;2024-01-27T06:03:55;5.33;;;2.03;;
2728;SDS011;1372;47.956;7.830;2024-01-27T06:06:25;3.37;;;1.80;;
2728;SDS011;1372;47.956;7.830;2024-01-27T06:08:54;1.50;;;1.40;;
2728;SDS011;1372;47.956;7.830;2024-01-27T06:11:24;2.63;;;1.23;;
2728;SDS011;1372;47.956;7.830;2024-01-27T06:13:54;1.43;;;0.90;;
2728;SDS011;1372;47.956;7.830;2024-01-27T06:16:23;3.67;;;1.20;;
2728;SDS011;1372;47.956;7.830;2024-01-27T06:18:52;3.53;;;1.50;;
2728;SDS011;1372;47.956;7.830;2024-01-27T06:21:23;3.57;;;1.90;;
2728;SDS011;1372;47.956;7.830;2024-01-27T06:23:54;2.83;;;1.67;;
2728;SDS011;1372;47.956;7.830;2024-01-27T06:26:25;6.97;;;1.30;;
2728;SDS011;1372;47.956;7.830;2024-01-27T06:28:54;1.70;;;1.60;;
2728;SDS011;1372;47.956;7.830;2024-01-27T06:31:23;5.33;;;1.90;;
2728;SDS011;1372;47.956;7.830;2024-01-27T06:33:52;2.33;;;1.30;;
2728;SDS011;1372;47.956;7.830;2024-01-27T06:36:21;2.90;;;1.40;;
2728;SDS011;1372;47.956;7.830;2024-01-27T06:38:51;4.50;;;1.73;;
2728;SDS011;1372;47.956;7.830;2024-01-27T06:41:25;3.13;;;1.40;;
2728;SDS011;1372;47.956;7.830;2024-01-27T06:43:54;5.37;;;2.23;;
2728;SDS011;1372;47.956;7.830;2024-01-27T06:46:23;4.20;;;1.47;;
2728;SDS011;1372;47.956;7.830;2024-01-27T06:48:52;2.53;;;1.63;;
2728;SDS011;1372;47.956;7.830;2024-01-27T06:51:22;2.27;;;1.40;;
2728;SDS011;1372;47.956;7.830;2024-01-27T06:53:53;2.73;;;2.00;;
2728;SDS011;1372;47.956;7.830;2024-01-27T06:56:22;4.67;;;3.87;;
2728;SDS011;1372;47.956;7.830;2024-01-27T06:58:52;8.23;;;6.17;;
2728;SDS011;1372;47.956;7.830;2024-01-27T07:01:21;3.10;;;2.80;;
2728;SDS011;1372;47.956;7.830;2024-01-27T07:03:50;2.60;;;1.40;;
2728;SDS011;1372;47.956;7.830;2024-01-27T07:06:19;8.07;;;2.60;;
2728;SDS011;1372;47.956;7.830;2024-01-27T07:08:48;2.80;;;1.40;;
2728;SDS011;1372;47.956;7.830;2024-01-27T07:11:17;2.67;;;1.73;;
2728;SDS011;1372;47.956;7.830;2024-01-27T07:13:46;9.30;;;3.80;;
2728;SDS011;1372;47.956;7.830;2024-01-27T07:16:16;6.40;;;3.20;;
2728;SDS011;1372;47.956;7.830;2024-01-27T07:18:46;6.83;;;3.90;;
2728;SDS011;1372;47.956;7.830;2024-01-27T07:21:15;6.87;;;4.40;;
2728;SDS011;1372;47.956;7.830;2024-01-27T07:23:45;2.67;;;2.40;;
2728;SDS011;1372;47.956;7.830;2024-01-27T07:26:15;4.80;;;3.90;;
2728;SDS011;1372;47.956;7.830;2024-01-27T07:28:44;8.20;;;4.47;;
2728;SDS011;1372;47.956;7.830;2024-01-27T07:31:14;10.40;;;4.80;;
2728;SDS011;1372;47.956;7.830;2024-01-27T07:33:45;10.47;;;7.70;;
2728;SDS011;1372;47.956;7.830;2024-01-27T07:36:15;4.00;;;3.30;;
2728;SDS011;1372;47.956;7.830;2024-01-27T07:38:44;5.03;;;3.27;;
2728;SDS011;1372;47.956;7.830;2024-01-27T07:41:13;5.20;;;2.20;;
2728;SDS011;1372;47.956;7.830;2024-01-27T07:43:42;3.30;;;3.00;;
2728;SDS011;1372;47.956;7.830;2024-01-27T07:46:11;5.30;;;3.00;;
2728;SDS011;1372;47.956;7.830;2024-01-27T07:48:39;4.70;;;2.90;;
2728;SDS011;1372;47.956;7.830;2024-01-27T07:51:10;8.70;;;5.10;;
2728;SDS011;1372;47.956;7.830;2024-01-27T07:53:39;6.03;;;5.10;;
2728;SDS011;1372;47.956;7.830;2024-01-27T07:56:08;4.93;;;3.20;;
2728;SDS011;1372;47.956;7.830;2024-01-27T07:58:37;8.57;;;3.90;;
2728;SDS011;1372;47.956;7.830;2024-01-27T08:01:05;4.50;;;2.67;;
2728;SDS011;1372;47.956;7.830;2024-01-27T08:03:34;3.30;;;2.97;;
2728;SDS011;1372;47.956;7.830;2024-01-27T08:06:04;9.03;;;3.70;;
2728;SDS011;1372;47.956;7.830;2024-01-27T08:08:37;4.93;;;3.27;;
2728;SDS011;1372;47.956;7.830;2024-01-27T08:11:08;17.70;;;11.17;;
2728;SDS011;1372;47.956;7.830;2024-01-27T08:13:37;8.57;;;6.60;;
2728;SDS011;1372;47.956;7.830;2024-01-27T08:16:06;8.10;;;4.20;;
2728;SDS011;1372;47.956;7.830;2024-01-27T08:18:38;7.33;;;4.23;;
2728;SDS011;1372;47.956;7.830;2024-01-27T08:21:11;6.40;;;3.83;;
2728;SDS011;1372;47.956;7.830;2024-01-27T08:23:44;5.27;;;3.33;;
2728;SDS011;1372;47.956;7.830;2024-01-27T08:26:13;4.20;;;3.20;;
2728;SDS011;1372;47.956;7.830;2024-01-27T08:28:42;6.90;;;4.50;;
2728;SDS011;1372;47.956;7.830;2024-01-27T08:31:11;11.83;;;7.93;;
2728;SDS011;1372;47.956;7.830;2024-01-27T08:33:40;14.20;;;9.90;;
2728;SDS011;1372;47.956;7.830;2024-01-27T08:36:12;21.70;;;16.00;;
2728;SDS011;1372;47.956;7.830;2024-01-27T08:38:44;18.93;;;14.00;;
2728;SDS011;1372;47.956;7.830;2024-01-27T08:41:12;8.00;;;6.10;;
2728;SDS011;1372;47.956;7.830;2024-01-27T08:43:41;9.13;;;4.97;;
2728;SDS011;1372;47.956;7.830;2024-01-27T08:46:10;7.20;;;4.10;;
2728;SDS011;1372;47.956;7.830;2024-01-27T08:48:42;2.77;;;2.10;;
2728;SDS011;1372;47.956;7.830;2024-01-27T08:51:11;2.23;;;1.90;;
2728;SDS011;1372;47.956;7.830;2024-01-27T08:53:45;4.60;;;2.47;;
2728;SDS011;1372;47.956;7.830;2024-01-27T08:56:15;3.23;;;2.10;;
2728;SDS011;1372;47.956;7.830;2024-01-27T08:58:45;4.93;;;2.00;;
2728;SDS011;1372;47.956;7.830;2024-01-27T09:01:15;3.00;;;1.87;;
2728;SDS011;1372;47.956;7.830;2024-01-27T09:03:50;3.40;;;1.77;;
2728;SDS011;1372;47.956;7.830;2024-01-27T09:06:18;3.20;;;2.73;;
2728;SDS011;1372;47.956;7.830;2024-01-27T09:08:49;4.97;;;3.57;;
2728;SDS011;1372;47.956;7.830;2024-01-27T09:11:18;3.77;;;3.47;;
2728;SDS011;1372;47.956;7.830;2024-01-27T09:13:48;4.47;;;3.73;;
2728;SDS011;1372;47.956;7.830;2024-01-27T09:16:18;5.33;;;2.23;;
2728;SDS011;1372;47.956;7.830;2024-01-27T09:18:48;4.53;;;2.10;;
2728;SDS011;1372;47.956;7.830;2024-01-27T09:21:20;5.60;;;2.10;;
2728;SDS011;1372;47.956;7.830;2024-01-27T09:23:58;4.60;;;1.77;;
2728;SDS011;1372;47.956;7.830;2024-01-27T09:26:29;2.13;;;1.60;;
2728;SDS011;1372;47.956;7.830;2024-01-27T09:28:58;1.83;;;1.63;;
2728;SDS011;1372;47.956;7.830;2024-01-27T09:31:27;2.13;;;1.73;;
2728;SDS011;1372;47.956;7.830;2024-01-27T09:33:56;4.20;;;2.27;;
2728;SDS011;1372;47.956;7.830;2024-01-27T09:36:25;3.67;;;3.40;;
2728;SDS011;1372;47.956;7.830;2024-01-27T09:38:56;3.83;;;3.30;;
2728;SDS011;1372;47.956;7.830;2024-01-27T09:41:29;7.07;;;6.50;;
2728;SDS011;1372;47.956;7.830;2024-01-27T09:44:00;10.27;;;9.43;;
2728;SDS011;1372;47.956;7.830;2024-01-27T09:46:33;11.70;;;10.50;;
2728;SDS011;1372;47.956;7.830;2024-01-27T09:49:02;8.87;;;8.07;;
2728;SDS011;1372;47.956;7.830;2024-01-27T09:51:32;6.47;;;5.97;;
2728;SDS011;1372;47.956;7.830;2024-01-27T09:54:03;4.10;;;3.73;;
2728;SDS011;1372;47.956;7.830;2024-01-27T09:56:32;4.50;;;4.10;;
2728;SDS011;1372;47.956;7.830;2024-01-27T09:59:02;4.20;;;3.80;;
2728;SDS011;1372;47.956;7.830;2024-01-27T10:01:33;4.90;;;4.40;;
2728;SDS011;1372;47.956;7.830;2024-01-27T10:04:05;5.43;;;3.60;;
2728;SDS011;1372;47.956;7.830;2024-01-27T10:06:36;4.80;;;3.23;;
2728;SDS011;1372;47.956;7.830;2024-01-27T10:09:07;4.90;;;3.77;;
2728;SDS011;1372;47.956;7.830;2024-01-27T10:11:37;4.87;;;3.40;;
2728;SDS011;1372;47.956;7.830;2024-01-27T10:14:13;5.57;;;3.50;;
2728;SDS011;1372;47.956;7.830;2024-01-27T10:16:48;6.37;;;3.90;;
2728;SDS011;1372;47.956;7.830;2024-01-27T10:19:17;5.97;;;3.13;;
2728;SDS011;1372;47.956;7.830;2024-01-27T10:21:48;3.80;;;3.50;;
2728;SDS011;1372;47.956;7.830;2024-01-27T10:24:33;4.23;;;3.87;;
2728;SDS011;1372;47.956;7.830;2024-01-27T10:27:04;3.93;;;3.53;;
2728;SDS011;1372;47.956;7.830;2024-01-27T10:29:34;5.43;;;3.80;;
2728;SDS011;1372;47.956;7.830;2024-01-27T10:32:09;6.07;;;4.00;;
2728;SDS011;1372;47.956;7.830;2024-01-27T10:34:39;5.83;;;4.20;;
2728;SDS011;1372;47.956;7.830;2024-01-27T10:37:09;5.20;;;3.97;;
2728;SDS011;1372;47.956;7.830;2024-01-27T10:39:42;7.10;;;4.30;;
2728;SDS011;1372;47.956;7.830;2024-01-27T10:42:14;4.83;;;3.50;;
2728;SDS011;1372;47.956;7.830;2024-01-27T10:44:47;6.50;;;3.70;;
2728;SDS011;1372;47.956;7.830;2024-01-27T10:47:16;3.70;;;3.40;;
2728;SDS011;1372;47.956;7.830;2024-01-27T10:49:50;3.37;;;3.07;;
2728;SDS011;1372;47.956;7.830;2024-01-27T10:52:23;5.10;;;4.20;;
2728;SDS011;1372;47.956;7.830;2024-01-27T10:54:59;4.80;;;3.90;;
2728;SDS011;1372;47.956;7.830;2024-01-27T10:57:34;4.40;;;4.00;;
2728;SDS011;1372;47.956;7.830;2024-01-27T11:00:04;5.67;;;3.50;;
2728;SDS011;1372;47.956;7.830;2024-01-27T11:02:35;4.20;;;3.87;;
2728;SDS011;1372;47.956;7.830;2024-01-27T11:05:06;5.80;;;3.60;;
2728;SDS011;1372;47.956;7.830;2024-01-27T11:07:38;4.80;;;3.97;;
2728;SDS011;1372;47.956;7.830;2024-01-27T11:10:11;6.70;;;4.20;;
2728;SDS011;1372;47.956;7.830;2024-01-27T11:12:40;5.30;;;4.03;;
2728;SDS011;1372;47.956;7.830;2024-01-27T11:15:09;3.97;;;3.30;;
2728;SDS011;1372;47.956;7.830;2024-01-27T11:17:40;4.90;;;3.47;;
2728;SDS011;1372;47.956;7.830;2024-01-27T11:20:10;3.27;;;2.97;;
2728;SDS011;1372;47.956;7.830;2024-01-27T11:22:40;5.80;;;2.93;;
2728;SDS011;1372;47.956;7.830;2024-01-27T11:25:16;3.47;;;2.90;;
2728;SDS011;1372;47.956;7.830;2024-01-27T11:27:46;4.17;;;2.40;;
2728;SDS011;1372;47.956;7.830;2024-01-27T11:30:25;2.10;;;1.97;;
2728;SDS011;1372;47.956;7.830;2024-01-27T11:32:56;5.50;;;2.30;;
2728;SDS011;1372;47.956;7.830;2024-01-27T11:35:26;5.33;;;2.20;;
2728;SDS011;1372;47.956;7.830;2024-01-27T11:37:55;3.03;;;2.23;;
2728;SDS011;1372;47.956;7.830;2024-01-27T11:40:25;2.30;;;2.10;;
2728;SDS011;1372;47.956;7.830;2024-01-27T11:42:55;3.83;;;2.80;;
2728;SDS011;1372;47.956;7.830;2024-01-27T11:45:24;3.20;;;2.27;;
2728;SDS011;1372;47.956;7.830;2024-01-27T11:47:57;2.83;;;2.37;;
2728;SDS011;1372;47.956;7.830;2024-01-27T11:50:28;4.73;;;3.20;;
2728;SDS011;1372;47.956;7.830;2024-01-27T11:52:57;4.10;;;2.40;;
2728;SDS011;1372;47.956;7.830;2024-01-27T11:55:28;3.30;;;2.97;;
2728;SDS011;1372;47.956;7.830;2024-01-27T11:57:56;9.30;;;6.10;;
2728;SDS011;1372;47.956;7.830;2024-01-27T12:00:25;4.50;;;3.57;;
2728;SDS011;1372;47.956;7.830;2024-01-27T12:02:54;4.00;;;2.90;;
2728;SDS011;1372;47.956;7.830;2024-01-27T12:05:24;4.73;;;2.83;;
2728;SDS011;1372;47.956;7.830;2024-01-27T12:07:53;7.40;;;2.87;;
2728;SDS011;1372;47.956;7.830;2024-01-27T12:10:23;3.47;;;2.47;;
2728;SDS011;1372;47.956;7.830;2024-01-27T12:12:53;4.53;;;3.63;;
2728;SDS011;1372;47.956;7.830;2024-01-27T12:15:22;4.43;;;3.07;;
2728;SDS011;1372;47.956;7.830;2024-01-27T12:17:50;3.00;;;2.50;;
2728;SDS011;1372;47.956;7.830;2024-01-27T12:20:19;4.10;;;2.83;;
2728;SDS011;1372;47.956;7.830;2024-01-27T12:22:52;5.10;;;2.80;;
2728;SDS011;1372;47.956;7.830;2024-01-27T12:25:31;16.73;;;11.17;;
2728;SDS011;1372;47.956;7.830;2024-01-27T12:28:04;5.97;;;5.13;;
2728;SDS011;1372;47.956;7.830;2024-01-27T12:30:34;4.17;;;3.10;;
2728;SDS011;1372;47.956;7.830;2024-01-27T12:33:08;2.87;;;2.60;;
2728;SDS011;1372;47.956;7.830;2024-01-27T12:35:38;10.00;;;3.20;;
2728;SDS011;1372;47.956;7.830;2024-01-27T12:38:07;5.47;;;2.60;;
2728;SDS011;1372;47.956;7.830;2024-01-27T12:40:37;6.23;;;5.10;;
2728;SDS011;1372;47.956;7.830;2024-01-27T12:43:08;5.90;;;4.80;;
2728;SDS011;1372;47.956;7.830;2024-01-27T12:45:37;10.33;;;3.83;;
2728;SDS011;1372;47.956;7.830;2024-01-27T12:48:06;4.27;;;2.97;;
2728;SDS011;1372;47.956;7.830;2024-01-27T12:50:34;6.83;;;4.13;;
2728;SDS011;1372;47.956;7.830;2024-01-27T12:53:03;7.97;;;3.33;;
2728;SDS011;1372;47.956;7.830;2024-01-27T12:55:32;4.97;;;2.77;;
2728;SDS011;1372;47.956;7.830;2024-01-27T12:58:01;3.13;;;2.40;;
2728;SDS011;1372;47.956;7.830;2024-01-27T13:00:34;3.67;;;3.07;;
2728;SDS011;1372;47.956;7.830;2024-01-27T13:03:04;6.33;;;5.00;;
2728;SDS011;1372;47.956;7.830;2024-01-27T13:05:33;4.60;;;3.03;;
2728;SDS011;1372;47.956;7.830;2024-01-27T13:08:02;7.83;;;4.03;;
2728;SDS011;1372;47.956;7.830;2024-01-27T13:10:31;3.37;;;2.70;;
2728;SDS011;1372;47.956;7.830;2024-01-27T13:13:00;6.37;;;4.17;;
2728;SDS011;1372;47.956;7.830;2024-01-27T13:15:31;4.90;;;3.40;;
2728;SDS011;1372;47.956;7.830;2024-01-27T13:18:02;2.70;;;2.50;;
2728;SDS011;1372;47.956;7.830;2024-01-27T13:20:32;3.83;;;3.53;;
2728;SDS011;1372;47.956;7.830;2024-01-27T13:23:01;5.80;;;3.00;;
2728;SDS011;1372;47.956;7.830;2024-01-27T13:25:30;3.13;;;2.83;;
2728;SDS011;1372;47.956;7.830;2024-01-27T13:27:59;5.07;;;3.40;;
2728;SDS011;1372;47.956;7.830;2024-01-27T13:30:28;3.90;;;2.70;;
2728;SDS011;1372;47.956;7.830;2024-01-27T13:33:01;3.90;;;3.50;;
2728;SDS011;1372;47.956;7.830;2024-01-27T13:35:30;4.70;;;3.90;;
2728;SDS011;1372;47.956;7.830;2024-01-27T13:37:59;6.90;;;4.70;;
2728;SDS011;1372;47.956;7.830;2024-01-27T13:40:28;5.17;;;3.77;;
2728;SDS011;1372;47.956;7.830;2024-01-27T13:42:57;4.57;;;4.03;;
2728;SDS011;1372;47.956;7.830;2024-01-27T13:45:26;6.50;;;3.00;;
2728;SDS011;1372;47.956;7.830;2024-01-27T13:47:56;6.73;;;3.27;;
2728;SDS011;1372;47.956;7.830;2024-01-27T13:50:27;3.30;;;2.77;;
2728;SDS011;1372;47.956;7.830;2024-01-27T13:52:57;6.43;;;3.70;;
2728;SDS011;1372;47.956;7.830;2024-01-27T13:55:26;4.13;;;2.87;;
2728;SDS011;1372;47.956;7.830;2024-01-27T13:57:55;19.37;;;12.97;;
2728;SDS011;1372;47.956;7.830;2024-01-27T14:00:24;7.73;;;3.87;;
2728;SDS011;1372;47.956;7.830;2024-01-27T14:02:53;6.40;;;3.10;;
2728;SDS011;1372;47.956;7.830;2024-01-27T14:05:23;13.83;;;8.00;;
2728;SDS011;1372;47.956;7.830;2024-01-27T14:07:53;5.27;;;3.90;;
2728;SDS011;1372;47.956;7.830;2024-01-27T14:10:22;20.60;;;12.20;;
2728;SDS011;1372;47.956;7.830;2024-01-27T14:12:51;47.07;;;38.13;;
2728;SDS011;1372;47.956;7.830;2024-01-27T14:15:20;16.90;;;14.53;;
2728;SDS011;1372;47.956;7.830;2024-01-27T14:17:49;6.03;;;3.40;;
2728;SDS011;1372;47.956;7.830;2024-01-27T14:20:18;3.87;;;3.50;;
2728;SDS011;1372;47.956;7.830;2024-01-27T14:22:47;11.60;;;9.03;;
2728;SDS011;1372;47.956;7.830;2024-01-27T14:25:20;4.83;;;4.20;;
2728;SDS011;1372;47.956;7.830;2024-01-27T14:27:49;10.57;;;9.60;;
2728;SDS011;1372;47.956;7.830;2024-01-27T14:30:18;7.00;;;5.97;;
2728;SDS011;1372;47.956;7.830;2024-01-27T14:32:46;9.27;;;3.73;;
2728;SDS011;1372;47.956;7.830;2024-01-27T14:35:15;4.07;;;3.67;;
2728;SDS011;1372;47.956;7.830;2024-01-27T14:37:44;8.67;;;4.37;;
2728;SDS011;1372;47.956;7.830;2024-01-27T14:40:15;4.97;;;3.77;;
2728;SDS011;1372;47.956;7.830;2024-01-27T14:42:48;9.30;;;3.80;;
2728;SDS011;1372;47.956;7.830;2024-01-27T14:45:17;8.30;;;4.20;;
2728;SDS011;1372;47.956;7.830;2024-01-27T14:47:46;3.40;;;3.00;;
2728;SDS011;1372;47.956;7.830;2024-01-27T14:50:18;7.73;;;4.63;;
2728;SDS011;1372;47.956;7.830;2024-01-27T14:52:47;6.67;;;3.50;;
2728;SDS011;1372;47.956;7.830;2024-01-27T14:55:15;5.33;;;3.50;;
2728;SDS011;1372;47.956;7.830;2024-01-27T14:57:44;4.37;;;3.50;;
2728;SDS011;1372;47.956;7.830;2024-01-27T15:00:16;8.53;;;3.60;;
2728;SDS011;1372;47.956;7.830;2024-01-27T15:02:45;9.13;;;4.47;;
2728;SDS011;1372;47.956;7.830;2024-01-27T15:05:16;4.27;;;3.60;;
2728;SDS011;1372;47.956;7.830;2024-01-27T15:07:45;7.20;;;3.60;;
2728;SDS011;1372;47.956;7.830;2024-01-27T15:10:16;5.13;;;2.93;;
2728;SDS011;1372;47.956;7.830;2024-01-27T15:12:45;3.30;;;3.00;;
2728;SDS011;1372;47.956;7.830;2024-01-27T15:15:16;4.37;;;3.13;;
2728;SDS011;1372;47.956;7.830;2024-01-27T15:17:45;4.83;;;2.77;;
2728;SDS011;1372;47.956;7.830;2024-01-27T15:20:14;3.87;;;3.47;;
2728;SDS011;1372;47.956;7.830;2024-01-27T15:22:43;4.13;;;3.73;;
2728;SDS011;1372;47.956;7.830;2024-01-27T15:25:12;4.00;;;3.40;;
2728;SDS011;1372;47.956;7.830;2024-01-27T15:27:41;6.63;;;4.80;;
2728;SDS011;1372;47.956;7.830;2024-01-27T15:30:11;7.40;;;5.83;;
2728;SDS011;1372;47.956;7.830;2024-01-27T15:32:43;9.83;;;8.27;;